Time;durP1;ratioP1;P1;durP2;ratioP2;P2;SDS_P1;SDS_P2;PMS_P1;PMS_P2;Temp;Humidity;BMP_temperature;BMP_pressure;BME280_temperature;BME280_humidity;BME280_pressure;Samples;Min_cycle;Max_cycle;Signal;HPM_P1;HPM_P2
2021/06/03 00:00:57;;;;;;;1.73;1.35;;;26.10;34.30;;;;;;5093145;28;20086;-61
2021/06/03 00:03:24;;;;;;;1.55;1.10;;;26.10;34.30;;;;;;5089719;28;20056;-60
2021/06/03 00:05:53;;;;;;;2.78;1.05;;;26.10;34.40;;;;;;5092295;28;20345;-60
2021/06/03 00:08:21;;;;;;;1.83;1.10;;;26.10;34.50;;;;;;5091411;28;20036;-60
2021/06/03 00:11:07;;;;;;;1.30;1.17;;;26.10;34.50;;;;;;5091072;28;20035;-60
2021/06/03 00:13:36;;;;;;;1.10;1.00;;;26.00;34.50;;;;;;5090532;28;20446;-60
2021/06/03 00:16:08;;;;;;;1.35;1.10;;;26.00;34.60;;;;;;5090576;28;20404;-58
2021/06/03 00:18:34;;;;;;;1.63;1.20;;;26.00;34.70;;;;;;5092972;28;20051;-59
2021/06/03 00:21:00;;;;;;;1.42;1.00;;;26.00;34.80;;;;;;5092808;28;20052;-60
2021/06/03 00:23:26;;;;;;;1.58;1.08;;;26.00;34.80;;;;;;5073208;28;20036;-59
2021/06/03 00:25:52;;;;;;;1.73;1.30;;;26.00;34.90;;;;;;5092873;28;20039;-59
2021/06/03 00:28:18;;;;;;;1.20;1.08;;;26.00;34.90;;;;;;5091774;28;20331;-60
2021/06/03 00:30:46;;;;;;;2.22;1.27;;;26.00;34.90;;;;;;5093181;28;20039;-59
2021/06/03 00:33:12;;;;;;;1.40;1.10;;;25.90;34.90;;;;;;5090753;28;20035;-60
2021/06/03 00:35:38;;;;;;;1.70;1.02;;;26.00;35.00;;;;;;5092928;28;20047;-59
2021/06/03 00:38:04;;;;;;;1.20;1.10;;;25.90;35.00;;;;;;5090588;28;20020;-60
2021/06/03 00:40:30;;;;;;;1.40;1.20;;;25.90;35.00;;;;;;5091637;28;20084;-60
2021/06/03 00:42:56;;;;;;;1.50;1.20;;;25.90;35.10;;;;;;5091721;28;20355;-60
2021/06/03 00:45:35;;;;;;;1.67;1.23;;;25.90;35.20;;;;;;5092278;28;20865;-60
2021/06/03 00:48:01;;;;;;;1.80;1.20;;;25.90;35.20;;;;;;5072154;28;20099;-59
2021/06/03 00:50:40;;;;;;;1.35;1.10;;;25.90;35.30;;;;;;5090802;28;20024;-60
2021/06/03 00:53:09;;;;;;;1.48;1.13;;;25.90;35.40;;;;;;5091671;28;20371;-60
2021/06/03 00:55:36;;;;;;;1.15;1.05;;;25.90;35.50;;;;;;5091045;28;20031;-60
2021/06/03 00:58:04;;;;;;;2.50;1.33;;;25.80;35.50;;;;;;5090840;28;20162;-61
2021/06/03 01:00:32;;;;;;;1.42;1.10;;;25.80;35.50;;;;;;5091514;28;20035;-61
2021/06/03 01:03:01;;;;;;;1.00;0.90;;;25.90;35.70;;;;;;5090762;28;20028;-60
2021/06/03 01:05:46;;;;;;;1.25;1.15;;;25.90;35.80;;;;;;5089425;28;20082;-61
2021/06/03 01:08:18;;;;;;;1.23;1.00;;;25.80;35.80;;;;;;5089688;28;20032;-61
2021/06/03 01:10:57;;;;;;;1.25;1.15;;;25.80;35.90;;;;;;5089951;28;20073;-59
2021/06/03 01:13:34;;;;;;;1.20;1.08;;;25.80;36.00;;;;;;5090122;28;20037;-60
2021/06/03 01:16:04;;;;;;;1.10;1.00;;;25.80;36.10;;;;;;5088488;28;20056;-60
2021/06/03 01:18:33;;;;;;;1.27;0.80;;;25.80;36.20;;;;;;5090899;28;20031;-59
2021/06/03 01:21:03;;;;;;;1.65;1.05;;;25.80;36.30;;;;;;5090727;28;20480;-60
2021/06/03 01:23:42;;;;;;;1.58;1.10;;;25.80;36.40;;;;;;5090312;28;20040;-61
2021/06/03 01:26:11;;;;;;;1.20;1.10;;;25.80;36.50;;;;;;5090466;28;20036;-60
2021/06/03 01:28:37;;;;;;;1.35;1.05;;;25.80;36.60;;;;;;5091646;28;20051;-60
2021/06/03 01:31:05;;;;;;;3.00;1.40;;;25.80;36.70;;;;;;5088491;28;20069;-60
2021/06/03 01:33:33;;;;;;;0.80;0.80;;;25.80;36.80;;;;;;5090461;28;20061;-60
2021/06/03 01:36:05;;;;;;;1.27;1.02;;;25.80;36.90;;;;;;5091950;28;20069;-60
2021/06/03 01:38:36;;;;;;;1.15;1.00;;;25.80;36.90;;;;;;5089990;28;20020;-60
2021/06/03 01:41:03;;;;;;;1.17;0.88;;;25.80;37.00;;;;;;5091231;28;20447;-61
2021/06/03 01:43:31;;;;;;;1.17;1.08;;;25.80;37.00;;;;;;5091977;28;20408;-60
2021/06/03 01:45:59;;;;;;;1.40;1.00;;;25.80;37.10;;;;;;5092278;28;20043;-61
2021/06/03 01:48:28;;;;;;;1.20;1.10;;;25.80;37.20;;;;;;5093742;28;20048;-60
2021/06/03 01:50:56;;;;;;;1.02;0.70;;;25.80;37.30;;;;;;5094650;28;20035;-60
2021/06/03 01:53:25;;;;;;;1.80;1.05;;;25.80;37.30;;;;;;5093519;28;20340;-60
2021/06/03 01:55:53;;;;;;;1.00;0.90;;;25.80;37.40;;;;;;5094722;28;20024;-59
2021/06/03 01:58:20;;;;;;;1.02;0.90;;;25.80;37.50;;;;;;5093596;28;20043;-60
2021/06/03 02:00:47;;;;;;;1.00;0.90;;;25.80;37.50;;;;;;5092772;28;20110;-60
2021/06/03 02:03:14;;;;;;;1.55;1.05;;;25.80;37.60;;;;;;5093131;28;20039;-60
2021/06/03 02:05:39;;;;;;;1.40;0.90;;;25.70;37.50;;;;;;5094828;28;20036;-60
2021/06/03 02:08:06;;;;;;;1.20;0.80;;;25.80;37.70;;;;;;5093865;28;20020;-59
2021/06/03 02:10:44;;;;;;;1.15;1.00;;;25.80;37.70;;;;;;5090853;28;20027;-61
2021/06/03 02:13:40;;;;;;;1.08;0.90;;;25.70;37.70;;;;;;5091252;28;20020;-60
2021/06/03 02:16:18;;;;;;;1.40;0.70;;;25.70;37.70;;;;;;5072961;28;20123;-59
2021/06/03 02:18:57;;;;;;;1.00;0.80;;;25.70;37.80;;;;;;5093075;28;20359;-59
2021/06/03 02:21:30;;;;;;;1.17;0.80;;;25.70;37.80;;;;;;5093010;28;20028;-60
2021/06/03 02:23:58;;;;;;;0.82;0.77;;;25.70;37.80;;;;;;5092016;28;20092;-60
2021/06/03 02:26:26;;;;;;;1.15;0.90;;;25.70;37.90;;;;;;5093110;28;20056;-61
2021/06/03 02:28:59;;;;;;;1.45;0.70;;;25.60;37.90;;;;;;5094587;28;20036;-60
2021/06/03 02:31:25;;;;;;;1.25;1.00;;;25.70;38.10;;;;;;5093993;28;20096;-59
2021/06/03 02:33:54;;;;;;;0.88;0.85;;;25.60;38.20;;;;;;5092000;28;20024;-60
2021/06/03 02:36:21;;;;;;;1.70;0.93;;;25.60;38.30;;;;;;5092449;28;20037;-60
2021/06/03 02:38:49;;;;;;;1.13;0.85;;;25.60;38.40;;;;;;5093820;28;20548;-61
2021/06/03 02:41:15;;;;;;;1.20;0.90;;;25.60;39.10;;;;;;5094035;28;20100;-59
2021/06/03 02:43:46;;;;;;;1.45;0.95;;;25.60;38.60;;;;;;5076663;28;20040;-59
2021/06/03 02:46:18;;;;;;;0.90;0.80;;;25.60;38.70;;;;;;5092107;28;20028;-60
2021/06/03 02:48:47;;;;;;;1.00;1.00;;;25.60;38.80;;;;;;5092568;28;20016;-59
2021/06/03 02:51:14;;;;;;;1.08;0.80;;;25.60;38.80;;;;;;5092094;28;20122;-59
2021/06/03 02:53:40;;;;;;;0.98;0.80;;;25.60;38.90;;;;;;5090227;28;20020;-60
2021/06/03 02:56:11;;;;;;;1.38;1.00;;;25.60;38.90;;;;;;5091095;28;20161;-60
2021/06/03 02:58:37;;;;;;;0.95;0.85;;;25.60;39.00;;;;;;5091798;28;20097;-60
2021/06/03 03:01:06;;;;;;;1.10;0.80;;;25.60;39.00;;;;;;5092690;28;20419;-61
2021/06/03 03:03:32;;;;;;;1.95;0.90;;;25.60;39.10;;;;;;5075546;28;20111;-60
2021/06/03 03:05:59;;;;;;;1.63;0.82;;;25.60;39.10;;;;;;5091682;28;20031;-61
2021/06/03 03:08:28;;;;;;;1.58;0.95;;;25.60;39.10;;;;;;5093739;28;20672;-60
2021/06/03 03:10:59;;;;;;;0.80;0.80;;;25.50;39.10;;;;;;5091930;28;20504;-59
2021/06/03 03:13:30;;;;;;;0.80;0.80;;;25.60;39.30;;;;;;5090739;28;20063;-61
2021/06/03 03:15:57;;;;;;;1.33;1.00;;;25.60;39.30;;;;;;5093487;28;20031;-59
2021/06/03 03:18:25;;;;;;;1.23;1.13;;;25.50;39.30;;;;;;5092669;28;20048;-59
2021/06/03 03:20:52;;;;;;;1.05;0.80;;;25.60;39.40;;;;;;5091922;28;20058;-60
2021/06/03 03:23:17;;;;;;;1.05;0.88;;;25.50;39.30;;;;;;5093025;28;20075;-59
2021/06/03 03:25:48;;;;;;;1.20;0.85;;;25.50;39.40;;;;;;5093780;28;20028;-60
2021/06/03 03:28:14;;;;;;;1.10;0.80;;;25.50;39.40;;;;;;5092844;28;20020;-59
2021/06/03 03:30:42;;;;;;;0.93;0.60;;;25.60;39.50;;;;;;5092967;28;20368;-60
2021/06/03 03:33:12;;;;;;;1.77;1.02;;;25.60;40.20;;;;;;5087089;28;20036;-60
2021/06/03 03:35:39;;;;;;;1.10;1.00;;;25.50;39.60;;;;;;5092573;28;20024;-59
2021/06/03 03:38:05;;;;;;;1.30;1.02;;;25.50;39.60;;;;;;5091773;28;20027;-59
2021/06/03 03:40:32;;;;;;;1.73;0.98;;;25.50;39.70;;;;;;5092049;28;20056;-60
2021/06/03 03:42:58;;;;;;;1.20;0.90;;;25.50;39.70;;;;;;5093545;28;20395;-60
2021/06/03 03:45:27;;;;;;;1.10;0.95;;;25.50;39.70;;;;;;5091780;28;20024;-60
2021/06/03 03:47:53;;;;;;;1.42;0.90;;;25.50;39.80;;;;;;5091725;28;20039;-60
2021/06/03 03:50:21;;;;;;;2.88;1.00;;;25.50;39.80;;;;;;5091841;28;20024;-60
2021/06/03 03:52:48;;;;;;;0.90;0.80;;;25.50;39.80;;;;;;5092584;28;20043;-61
2021/06/03 03:55:16;;;;;;;0.82;0.80;;;25.50;39.90;;;;;;5090926;28;20075;-61
2021/06/03 03:57:44;;;;;;;1.10;0.80;;;25.50;39.90;;;;;;5091290;28;20112;-60
2021/06/03 04:00:18;;;;;;;1.30;0.80;;;25.50;40.00;;;;;;5091405;28;20522;-62
2021/06/03 04:02:44;;;;;;;0.90;0.73;;;25.50;40.00;;;;;;5091947;28;20055;-58
2021/06/03 04:05:19;;;;;;;1.10;0.80;;;25.50;40.10;;;;;;5091152;28;20032;-60
2021/06/03 04:07:45;;;;;;;0.95;0.80;;;25.50;40.20;;;;;;5091974;28;20024;-60
2021/06/03 04:10:14;;;;;;;0.90;0.80;;;25.50;40.20;;;;;;5092055;28;20089;-60
2021/06/03 04:12:41;;;;;;;1.73;1.00;;;25.50;40.30;;;;;;5091514;28;20055;-60
2021/06/03 04:15:10;;;;;;;0.93;0.70;;;25.50;40.40;;;;;;5091857;28;20103;-60
2021/06/03 04:17:37;;;;;;;1.33;0.70;;;25.50;40.40;;;;;;5092305;28;20028;-61
2021/06/03 04:20:11;;;;;;;1.67;1.10;;;25.50;41.10;;;;;;5091796;28;20028;-60
2021/06/03 04:22:37;;;;;;;0.85;0.73;;;25.50;40.60;;;;;;5091376;28;20055;-59
2021/06/03 04:25:05;;;;;;;0.70;0.70;;;25.50;40.60;;;;;;5092358;28;20359;-61
2021/06/03 04:27:31;;;;;;;0.93;0.70;;;25.50;40.70;;;;;;5092652;28;20028;-60
2021/06/03 04:29:58;;;;;;;0.98;0.82;;;25.50;40.70;;;;;;5089921;28;20036;-60
2021/06/03 04:32:24;;;;;;;1.40;1.00;;;25.40;40.70;;;;;;5074155;28;20040;-59
2021/06/03 04:34:50;;;;;;;2.30;0.80;;;25.50;40.80;;;;;;5091974;28;20051;-59
2021/06/03 04:37:16;;;;;;;0.90;0.70;;;25.50;40.90;;;;;;5091842;28;20019;-60
2021/06/03 04:39:41;;;;;;;1.23;1.10;;;25.50;40.90;;;;;;5092160;28;20043;-60
2021/06/03 04:42:08;;;;;;;1.33;1.00;;;25.50;41.00;;;;;;5091508;28;20040;-61
2021/06/03 04:44:34;;;;;;;1.20;0.95;;;25.50;41.00;;;;;;5092003;28;20074;-60
2021/06/03 04:47:00;;;;;;;0.95;0.75;;;25.50;41.00;;;;;;5089605;28;20052;-60
2021/06/03 04:49:25;;;;;;;0.88;0.82;;;25.50;41.10;;;;;;5092186;28;20024;-61
2021/06/03 04:51:51;;;;;;;1.15;0.98;;;25.50;41.40;;;;;;5091665;28;20107;-60
2021/06/03 04:54:17;;;;;;;1.70;1.00;;;25.50;41.20;;;;;;5092027;28;20447;-60
2021/06/03 04:56:43;;;;;;;1.20;0.90;;;25.50;41.20;;;;;;5091989;28;20028;-60
2021/06/03 04:59:08;;;;;;;3.70;1.00;;;25.50;41.20;;;;;;5090372;28;20406;-61
2021/06/03 05:01:35;;;;;;;1.05;0.77;;;25.50;41.30;;;;;;5090365;28;20062;-61
2021/06/03 05:04:01;;;;;;;1.45;0.90;;;25.50;41.40;;;;;;5092146;28;20028;-60
2021/06/03 05:06:27;;;;;;;1.45;0.98;;;25.50;41.50;;;;;;5090466;28;20448;-60
2021/06/03 05:08:53;;;;;;;1.73;1.00;;;25.40;41.50;;;;;;5088826;28;20458;-60
2021/06/03 05:11:18;;;;;;;1.30;0.95;;;25.50;41.60;;;;;;5086702;28;20122;-60
2021/06/03 05:13:44;;;;;;;1.50;1.00;;;25.50;41.70;;;;;;5091529;28;20028;-59
2021/06/03 05:16:10;;;;;;;1.13;1.02;;;25.50;41.70;;;;;;5090366;28;20047;-60
2021/06/03 05:18:38;;;;;;;2.55;1.20;;;25.40;41.70;;;;;;5092508;28;20032;-60
2021/06/03 05:21:05;;;;;;;1.58;0.95;;;25.50;41.90;;;;;;5095419;28;20024;-58
2021/06/03 05:23:31;;;;;;;1.35;1.15;;;25.50;42.00;;;;;;5095482;28;20089;-60
2021/06/03 05:25:57;;;;;;;1.20;1.10;;;25.50;42.00;;;;;;5095226;28;20071;-61
2021/06/03 05:28:23;;;;;;;1.08;0.98;;;25.40;42.10;;;;;;5096075;28;20403;-60
2021/06/03 05:30:49;;;;;;;1.48;1.02;;;25.50;42.20;;;;;;5095733;28;20024;-59
2021/06/03 05:33:14;;;;;;;1.10;1.00;;;25.50;42.20;;;;;;5095151;28;20032;-61
2021/06/03 05:35:40;;;;;;;1.23;1.00;;;25.50;42.30;;;;;;5095287;28;20107;-59
2021/06/03 05:38:06;;;;;;;1.63;1.02;;;25.50;42.40;;;;;;5094553;28;20159;-60
2021/06/03 05:40:33;;;;;;;2.50;1.25;;;25.50;42.50;;;;;;5095353;28;20032;-59
2021/06/03 05:43:01;;;;;;;1.63;1.27;;;25.50;42.60;;;;;;5094167;28;20044;-59
2021/06/03 05:45:27;;;;;;;1.38;1.17;;;25.50;42.70;;;;;;5094913;28;20384;-60
2021/06/03 05:47:54;;;;;;;1.45;1.08;;;25.50;42.80;;;;;;5094859;28;20052;-59
2021/06/03 05:50:23;;;;;;;1.05;0.82;;;25.50;42.80;;;;;;5094685;28;20031;-60
2021/06/03 05:52:50;;;;;;;1.23;0.90;;;25.50;42.90;;;;;;5092878;28;20032;-61
2021/06/03 05:55:17;;;;;;;1.88;1.15;;;25.50;43.00;;;;;;5095518;28;20050;-60
2021/06/03 05:57:43;;;;;;;0.82;0.80;;;25.50;43.00;;;;;;5092535;28;20436;-60
2021/06/03 06:00:18;;;;;;;1.42;1.00;;;25.50;43.10;;;;;;5095381;28;20071;-59
2021/06/03 06:02:56;;;;;;;1.52;1.10;;;25.50;43.20;;;;;;5093436;28;20066;-59
2021/06/03 06:08:08;;;;;;;1.30;1.15;;;25.50;43.40;;;;;;5094051;28;20111;-61
2021/06/03 06:10:36;;;;;;;1.00;0.80;;;25.50;43.50;;;;;;5091003;28;20024;-59
2021/06/03 06:13:03;;;;;;;2.72;0.90;;;25.50;43.70;;;;;;5095764;28;20119;-60
2021/06/03 06:15:32;;;;;;;1.35;1.15;;;25.50;43.80;;;;;;5096248;28;20028;-61
2021/06/03 06:17:59;;;;;;;1.23;1.10;;;25.50;43.90;;;;;;5095867;28;20365;-59
2021/06/03 06:20:27;;;;;;;1.50;1.23;;;25.60;44.10;;;;;;5094314;28;20024;-57
2021/06/03 06:22:56;;;;;;;2.00;1.50;;;25.50;44.10;;;;;;5092868;28;20036;-59
2021/06/03 06:25:22;;;;;;;1.77;1.10;;;25.60;44.30;;;;;;5094449;28;20032;-63
2021/06/03 06:27:48;;;;;;;1.25;1.00;;;25.60;44.40;;;;;;5094775;28;20492;-61
2021/06/03 06:30:15;;;;;;;1.10;1.00;;;25.50;44.40;;;;;;5092950;28;20035;-58
2021/06/03 06:32:41;;;;;;;1.55;1.13;;;25.50;44.50;;;;;;5094439;28;20024;-59
2021/06/03 06:35:09;;;;;;;1.88;1.30;;;25.50;44.60;;;;;;5093513;28;20020;-60
2021/06/03 06:37:35;;;;;;;1.33;1.08;;;25.60;44.70;;;;;;5093624;28;20032;-57
2021/06/03 06:40:02;;;;;;;2.28;1.33;;;25.60;44.80;;;;;;5093939;28;20459;-59
2021/06/03 06:42:31;;;;;;;1.90;1.17;;;25.60;44.80;;;;;;5093048;28;20534;-57
2021/06/03 06:44:58;;;;;;;1.95;1.10;;;25.60;44.90;;;;;;5091916;28;20074;-59
2021/06/03 06:47:24;;;;;;;1.75;1.10;;;25.60;45.00;;;;;;5093993;28;20329;-63
2021/06/03 06:49:50;;;;;;;1.63;1.10;;;25.60;45.00;;;;;;5094970;28;20056;-59
2021/06/03 06:52:16;;;;;;;1.33;0.95;;;25.60;45.00;;;;;;5094238;28;20032;-63
2021/06/03 06:54:42;;;;;;;2.10;1.10;;;25.60;45.00;;;;;;5093353;28;20016;-63
2021/06/03 06:57:08;;;;;;;1.52;1.05;;;25.70;45.20;;;;;;5085610;28;20541;-63
2021/06/03 06:59:34;;;;;;;2.65;1.00;;;25.80;45.20;;;;;;5093457;28;20044;-62
2021/06/03 07:02:00;;;;;;;1.67;1.00;;;25.80;45.20;;;;;;5092202;28;20079;-62
2021/06/03 07:04:26;;;;;;;1.85;1.50;;;25.90;45.10;;;;;;5091403;28;20083;-60
2021/06/03 07:06:52;;;;;;;1.10;0.93;;;25.90;45.10;;;;;;5093236;28;20032;-61
2021/06/03 07:09:18;;;;;;;2.15;1.75;;;25.90;45.10;;;;;;5087653;28;20048;-61
2021/06/03 07:11:44;;;;;;;1.65;1.15;;;25.90;45.10;;;;;;5086422;28;20048;-61
2021/06/03 07:14:10;;;;;;;1.30;0.93;;;26.00;45.10;;;;;;5085003;28;20112;-61
2021/06/03 07:16:38;;;;;;;1.40;1.30;;;26.00;45.10;;;;;;5082234;28;20065;-61
2021/06/03 07:19:06;;;;;;;2.17;1.23;;;26.00;45.10;;;;;;5092365;28;20055;-65
2021/06/03 07:21:32;;;;;;;1.30;1.20;;;26.10;45.10;;;;;;5091344;28;20452;-62
2021/06/03 07:24:01;;;;;;;3.05;1.25;;;26.10;45.00;;;;;;5095195;28;20431;-62
2021/06/03 07:26:27;;;;;;;1.58;1.27;;;26.10;45.00;;;;;;5093489;28;20387;-60
2021/06/03 07:28:54;;;;;;;1.58;1.30;;;26.10;44.90;;;;;;5095106;28;20043;-62
2021/06/03 07:31:20;;;;;;;2.13;1.20;;;26.20;45.00;;;;;;5090446;28;20091;-60
2021/06/03 07:33:46;;;;;;;1.98;1.45;;;26.20;44.90;;;;;;5094841;28;20055;-60
2021/06/03 07:36:12;;;;;;;1.60;1.10;;;26.20;44.90;;;;;;5094657;28;20107;-61
2021/06/03 07:38:39;;;;;;;1.70;1.23;;;26.30;44.90;;;;;;5093362;28;20513;-64
2021/06/03 07:41:05;;;;;;;1.85;1.23;;;26.30;44.80;;;;;;5074102;28;20351;-63
2021/06/03 07:43:31;;;;;;;1.52;1.42;;;26.30;44.80;;;;;;5092593;28;20046;-61
2021/06/03 07:45:58;;;;;;;1.40;1.30;;;26.40;44.80;;;;;;5093624;28;20028;-62
2021/06/03 07:48:23;;;;;;;1.88;1.63;;;26.40;44.70;;;;;;5092223;28;20344;-61
2021/06/03 07:50:49;;;;;;;1.73;1.45;;;26.40;44.70;;;;;;5089967;28;20028;-61
2021/06/03 07:53:15;;;;;;;2.17;1.60;;;26.40;44.70;;;;;;5094500;28;20090;-61
2021/06/03 07:55:41;;;;;;;2.75;1.25;;;26.40;44.60;;;;;;5092702;28;20028;-61
2021/06/03 07:58:10;;;;;;;1.58;1.48;;;26.40;44.60;;;;;;5093365;28;20436;-61
2021/06/03 08:00:39;;;;;;;1.77;1.60;;;26.50;44.70;;;;;;5092628;28;20106;-61
2021/06/03 08:03:06;;;;;;;1.85;1.40;;;26.50;44.80;;;;;;5092457;28;20360;-60
2021/06/03 08:05:32;;;;;;;1.85;1.50;;;26.50;44.70;;;;;;5092668;28;20024;-60
2021/06/03 08:07:58;;;;;;;3.38;1.42;;;26.50;44.70;;;;;;5090558;28;20065;-61
2021/06/03 08:10:31;;;;;;;1.75;1.40;;;26.50;44.80;;;;;;5092243;28;20493;-61
2021/06/03 08:12:58;;;;;;;3.42;1.30;;;26.50;44.80;;;;;;5090797;28;20463;-60
2021/06/03 08:15:27;;;;;;;1.95;1.27;;;26.50;44.80;;;;;;5092579;28;20342;-61
2021/06/03 08:17:54;;;;;;;1.80;1.50;;;26.50;44.90;;;;;;5090761;28;20144;-61
2021/06/03 08:20:33;;;;;;;3.20;1.58;;;26.60;44.90;;;;;;5089084;28;20035;-61
2021/06/03 08:22:59;;;;;;;4.10;1.75;;;26.60;44.90;;;;;;5090760;28;20363;-61
2021/06/03 08:25:25;;;;;;;1.40;1.20;;;26.60;44.80;;;;;;5089294;28;20031;-62
2021/06/03 08:27:52;;;;;;;1.33;1.23;;;26.60;44.80;;;;;;5093050;28;20028;-61
2021/06/03 08:30:18;;;;;;;2.13;1.45;;;26.60;44.80;;;;;;5092721;28;20383;-62
2021/06/03 08:32:50;;;;;;;3.80;1.60;;;26.70;44.90;;;;;;5094204;28;20024;-63
2021/06/03 08:35:19;;;;;;;1.58;1.13;;;26.70;44.90;;;;;;5093818;28;20415;-62
2021/06/03 08:37:48;;;;;;;1.88;1.30;;;26.70;44.90;;;;;;5086611;28;20035;-62
2021/06/03 08:40:17;;;;;;;1.52;1.15;;;26.70;44.90;;;;;;5089713;28;20359;-59
2021/06/03 08:42:43;;;;;;;1.50;1.30;;;26.70;44.90;;;;;;5091657;28;20497;-60
2021/06/03 08:45:12;;;;;;;3.45;1.50;;;26.70;44.90;;;;;;5092634;28;20431;-60
2021/06/03 08:47:38;;;;;;;2.25;1.17;;;26.70;44.90;;;;;;5091684;28;20111;-59
2021/06/03 08:50:05;;;;;;;1.65;1.00;;;26.80;44.90;;;;;;5091519;28;20363;-60
2021/06/03 08:52:31;;;;;;;1.60;1.17;;;26.80;44.90;;;;;;5092103;28;20020;-61
2021/06/03 08:54:58;;;;;;;1.75;1.20;;;26.80;44.90;;;;;;5096389;28;20439;-61
2021/06/03 08:57:24;;;;;;;1.55;1.30;;;26.80;44.90;;;;;;5093256;28;20108;-60
2021/06/03 08:59:51;;;;;;;2.22;1.80;;;26.80;44.90;;;;;;5093720;28;20107;-60
2021/06/03 09:02:18;;;;;;;1.77;1.10;;;26.80;44.80;;;;;;5094228;28;20079;-63
2021/06/03 09:04:44;;;;;;;3.58;1.20;;;26.80;44.80;;;;;;5094721;28;20389;-60
2021/06/03 09:07:34;;;;;;;1.67;1.40;;;26.80;45.50;;;;;;5091730;28;20506;-57
2021/06/03 09:10:48;;;;;;;1.65;1.27;;;26.80;44.90;;;;;;5096686;28;20035;-61
2021/06/03 09:13:26;;;;;;;1.33;0.90;;;26.80;44.80;;;;;;5083007;28;20454;-61
2021/06/03 09:15:55;;;;;;;1.52;1.13;;;26.80;44.80;;;;;;5091453;28;20028;-60
2021/06/03 09:18:35;;;;;;;1.38;1.10;;;26.80;44.80;;;;;;5095385;28;20028;-61
2021/06/03 09:21:25;;;;;;;1.40;1.30;;;26.90;44.80;;;;;;5093738;28;20103;-61
2021/06/03 09:24:10;;;;;;;1.40;1.17;;;26.90;44.80;;;;;;5095164;28;20059;-60
2021/06/03 09:26:49;;;;;;;2.53;1.45;;;26.90;44.80;;;;;;5089372;28;20499;-52
2021/06/03 09:29:21;;;;;;;1.90;1.17;;;26.90;44.80;;;;;;5095141;28;20350;-58
2021/06/03 09:31:48;;;;;;;2.75;1.45;;;26.90;44.80;;;;;;5094616;28;20043;-57
2021/06/03 09:34:19;;;;;;;2.25;1.45;;;26.90;44.80;;;;;;5092589;28;20031;-56
2021/06/03 09:36:47;;;;;;;1.60;1.50;;;26.90;44.80;;;;;;5090837;28;20024;-58
2021/06/03 09:39:23;;;;;;;1.58;1.30;;;26.90;44.80;;;;;;5094984;28;20036;-59
2021/06/03 09:42:03;;;;;;;1.40;1.00;;;27.00;44.90;;;;;;5090805;28;20443;-60
2021/06/03 09:44:38;;;;;;;2.13;1.20;;;27.00;45.00;;;;;;5089568;28;20036;-58
2021/06/03 09:47:13;;;;;;;2.55;1.15;;;26.90;44.90;;;;;;5092852;28;20447;-56
2021/06/03 09:49:59;;;;;;;1.15;1.00;;;27.00;45.00;;;;;;5089284;28;20421;-63
2021/06/03 09:52:33;;;;;;;1.70;1.25;;;27.00;45.00;;;;;;5093746;28;20028;-60
2021/06/03 09:55:00;;;;;;;;;;;27.00;45.10;;;;;;5094201;28;20043;-60
2021/06/03 09:57:34;;;;;;;1.98;1.00;;;26.90;45.10;;;;;;5090198;28;19962;-61
2021/06/03 10:00:01;;;;;;;;;;;27.00;45.10;;;;;;5095357;28;20055;-60
2021/06/03 10:02:38;;;;;;;1.00;0.90;;;26.90;45.10;;;;;;5087678;28;19923;-60
2021/06/03 10:05:16;;;;;;;1.77;1.25;;;27.00;45.20;;;;;;5093012;28;20440;-60
2021/06/03 10:08:05;;;;;;;1.60;1.30;;;27.00;45.30;;;;;;5088110;28;20648;-60
2021/06/03 10:10:33;;;;;;;1.92;1.23;;;27.00;45.30;;;;;;5087624;28;20028;-61
2021/06/03 10:13:08;;;;;;;2.55;1.45;;;27.00;45.30;;;;;;5087191;28;20036;-61
2021/06/03 10:15:39;;;;;;;2.75;1.50;;;27.00;45.40;;;;;;5092513;28;20039;-60
2021/06/03 10:18:15;;;;;;;2.33;1.17;;;27.00;45.40;;;;;;5091275;28;20028;-62
2021/06/03 10:20:48;;;;;;;2.05;1.45;;;27.10;45.60;;;;;;5091205;28;20528;-62
2021/06/03 10:23:19;;;;;;;1.45;1.25;;;27.10;45.60;;;;;;5087208;28;20048;-61
2021/06/03 10:26:06;;;;;;;1.88;1.42;;;27.10;45.70;;;;;;5088439;28;20047;-59
2021/06/03 10:28:33;;;;;;;1.67;1.50;;;27.10;45.80;;;;;;5089925;28;20075;-60
2021/06/03 10:31:07;;;;;;;1.65;1.50;;;27.10;45.80;;;;;;5088754;28;20047;-61
2021/06/03 10:33:35;;;;;;;1.67;1.40;;;27.10;45.80;;;;;;5086558;28;20470;-60
2021/06/03 10:36:07;;;;;;;1.60;1.48;;;27.20;45.90;;;;;;5090305;28;20036;-60
2021/06/03 10:38:33;;;;;;;1.70;1.35;;;27.20;46.50;;;;;;5090264;28;20388;-59
2021/06/03 10:41:02;;;;;;;1.92;1.52;;;27.20;45.90;;;;;;5091848;28;20547;-61
2021/06/03 10:43:29;;;;;;;2.15;1.48;;;27.20;45.90;;;;;;5091945;28;20500;-57
2021/06/03 10:45:55;;;;;;;2.15;1.42;;;27.20;45.90;;;;;;5091337;28;20109;-60
2021/06/03 10:48:21;;;;;;;1.98;1.70;;;27.20;46.00;;;;;;5073392;28;20109;-61
2021/06/03 10:50:49;;;;;;;2.38;1.30;;;27.20;46.10;;;;;;5091935;28;20510;-61
2021/06/03 10:53:18;;;;;;;2.42;1.55;;;27.20;46.10;;;;;;5089902;28;20443;-60
2021/06/03 10:55:48;;;;;;;2.70;1.48;;;27.30;46.30;;;;;;5093268;28;20077;-61
2021/06/03 10:58:15;;;;;;;3.53;1.50;;;27.20;46.30;;;;;;5089529;28;20028;-61
2021/06/03 11:01:08;;;;;;;2.30;1.42;;;27.30;46.50;;;;;;5093720;28;20432;-63
2021/06/03 11:03:47;;;;;;;3.65;1.83;;;27.30;46.80;;;;;;5091133;28;20514;-61
2021/06/03 11:06:24;;;;;;;2.58;1.60;;;27.30;46.90;;;;;;5093350;28;20024;-60
2021/06/03 11:09:02;;;;;;;2.20;1.33;;;27.30;47.00;;;;;;5092952;28;20028;-61
2021/06/03 11:11:34;;;;;;;2.90;1.40;;;27.30;47.20;;;;;;5088030;28;20024;-60
2021/06/03 11:14:14;;;;;;;1.88;1.70;;;27.30;47.30;;;;;;5088620;28;20031;-61
2021/06/03 11:16:40;;;;;;;1.90;1.48;;;27.30;47.30;;;;;;5090602;28;20030;-61
2021/06/03 11:19:10;;;;;;;1.92;1.58;;;27.30;47.40;;;;;;5088167;28;20032;-63
2021/06/03 11:21:43;;;;;;;1.90;1.45;;;27.30;47.60;;;;;;5091113;28;20047;-62
2021/06/03 11:24:14;;;;;;;1.90;1.70;;;27.30;47.70;;;;;;5089533;28;20048;-62
2021/06/03 11:26:44;;;;;;;2.25;1.55;;;27.40;47.80;;;;;;5091987;28;20024;-63
2021/06/03 11:29:25;;;;;;;2.60;1.80;;;27.40;47.80;;;;;;5093313;28;20043;-62
2021/06/03 11:32:06;;;;;;;2.35;1.63;;;27.40;47.90;;;;;;5092022;28;20042;-63
2021/06/03 11:34:41;;;;;;;2.70;1.95;;;27.50;47.90;;;;;;5091960;28;20129;-64
2021/06/03 11:37:30;;;;;;;2.03;1.70;;;27.50;48.40;;;;;;5093589;28;20036;-67
2021/06/03 11:40:05;;;;;;;2.22;1.63;;;27.50;48.40;;;;;;5090351;28;20036;-65
2021/06/03 11:42:39;;;;;;;1.52;1.42;;;27.60;48.60;;;;;;5076984;28;20054;-63
2021/06/03 11:45:28;;;;;;;1.42;1.20;;;27.60;48.60;;;;;;5092821;28;20031;-64
2021/06/03 11:47:57;;;;;;;2.95;2.10;;;27.60;48.60;;;;;;5092519;28;20040;-65
2021/06/03 11:50:22;;;;;;;1.80;1.70;;;27.60;48.60;;;;;;5089633;28;20027;-62
2021/06/03 11:53:04;;;;;;;2.28;1.90;;;27.60;48.40;;;;;;5093957;28;20027;-62
2021/06/03 11:55:49;;;;;;;1.60;1.42;;;27.60;48.40;;;;;;5093088;28;20035;-61
2021/06/03 11:58:27;;;;;;;2.67;1.80;;;27.70;48.40;;;;;;5093597;28;20038;-62
2021/06/03 12:01:07;;;;;;;2.22;1.98;;;27.70;48.40;;;;;;5079616;28;20102;-62
2021/06/03 12:03:37;;;;;;;1.95;1.58;;;27.70;48.40;;;;;;5086144;28;20112;-62
2021/06/03 12:06:07;;;;;;;2.05;1.67;;;27.70;48.30;;;;;;5093619;28;20209;-61
2021/06/03 12:08:48;;;;;;;1.83;1.55;;;27.70;48.30;;;;;;5094896;28;20351;-62
2021/06/03 12:11:23;;;;;;;1.77;1.67;;;27.70;48.20;;;;;;5094742;28;20040;-62
2021/06/03 12:14:05;;;;;;;2.28;1.63;;;27.70;48.10;;;;;;5094603;28;20074;-60
2021/06/03 12:16:46;;;;;;;1.42;1.33;;;27.70;48.00;;;;;;5094309;28;20020;-60
2021/06/03 12:19:20;;;;;;;2.95;1.75;;;27.80;48.00;;;;;;5094304;28;20363;-61
2021/06/03 12:21:59;;;;;;;2.25;1.48;;;27.70;47.90;;;;;;5094508;28;20106;-60
2021/06/03 12:24:38;;;;;;;1.73;1.58;;;27.70;47.90;;;;;;5094704;28;20028;-59
2021/06/03 12:27:06;;;;;;;1.70;1.60;;;27.80;47.90;;;;;;5094106;28;20182;-61
2021/06/03 12:29:33;;;;;;;1.85;1.67;;;27.80;47.80;;;;;;5094258;28;20478;-60
2021/06/03 12:32:01;;;;;;;1.92;1.65;;;27.80;47.70;;;;;;5088901;28;20032;-61
2021/06/03 12:34:31;;;;;;;2.38;1.88;;;27.80;47.70;;;;;;5085472;28;20039;-61
2021/06/03 12:36:57;;;;;;;1.75;1.60;;;27.80;47.70;;;;;;5094062;28;20378;-62
2021/06/03 12:39:25;;;;;;;2.15;1.60;;;27.80;47.70;;;;;;5093290;28;20444;-62
2021/06/03 12:41:53;;;;;;;2.25;1.65;;;27.80;47.60;;;;;;5094472;28;20477;-62
2021/06/03 12:44:21;;;;;;;1.75;1.65;;;27.80;47.60;;;;;;5094474;28;20021;-62
2021/06/03 12:46:52;;;;;;;2.05;1.50;;;27.80;47.50;;;;;;5094517;28;20058;-61
2021/06/03 12:49:26;;;;;;;1.30;1.20;;;27.80;47.50;;;;;;5094503;28;20044;-62
2021/06/03 12:51:57;;;;;;;1.63;1.35;;;27.80;47.40;;;;;;5093970;28;20020;-62
2021/06/03 12:54:44;;;;;;;1.60;1.45;;;27.80;47.40;;;;;;5094388;28;20081;-62
2021/06/03 12:57:18;;;;;;;1.50;1.10;;;27.80;47.40;;;;;;5093913;28;20035;-61
2021/06/03 12:59:46;;;;;;;1.73;1.40;;;27.90;47.40;;;;;;5080677;28;20029;-62
2021/06/03 13:02:15;;;;;;;1.20;1.10;;;27.90;47.40;;;;;;5073945;28;20025;-61
2021/06/03 13:04:51;;;;;;;1.98;1.52;;;27.90;47.50;;;;;;5086134;28;20463;-62